sensor_id;sensor_type;location;lat;lon;timestamp;temperature;humidity
14006;DHT22;7078;51.542;7.314;2023-08-07T00:00:22;13.30;99.90
14006;DHT22;7078;51.542;7.314;2023-08-07T00:02:48;13.20;99.90
14006;DHT22;7078;51.542;7.314;2023-08-07T00:05:14;13.30;99.90
14006;DHT22;7078;51.542;7.314;2023-08-07T00:07:39;13.20;99.90
14006;DHT22;7078;51.542;7.314;2023-08-07T00:10:05;13.30;99.90
14006;DHT22;7078;51.542;7.314;2023-08-07T00:12:31;13.30;99.90
14006;DHT22;7078;51.542;7.314;2023-08-07T00:14:56;13.30;99.90
14006;DHT22;7078;51.542;7.314;2023-08-07T00:17:22;13.20;99.90
14006;DHT22;7078;51.542;7.314;2023-08-07T00:19:48;13.30;99.90
14006;DHT22;7078;51.542;7.314;2023-08-07T00:22:13;13.30;99.90
14006;DHT22;7078;51.542;7.314;2023-08-07T00:24:39;13.30;99.90
14006;DHT22;7078;51.542;7.314;2023-08-07T00:27:05;13.30;99.90
14006;DHT22;7078;51.542;7.314;2023-08-07T00:29:32;13.30;99.90
14006;DHT22;7078;51.542;7.314;2023-08-07T00:31:58;13.40;99.90
14006;DHT22;7078;51.542;7.314;2023-08-07T00:34:23;13.30;99.90
14006;DHT22;7078;51.542;7.314;2023-08-07T00:36:49;13.40;99.90
14006;DHT22;7078;51.542;7.314;2023-08-07T00:39:15;13.30;99.90
14006;DHT22;7078;51.542;7.314;2023-08-07T00:41:41;13.30;99.90
14006;DHT22;7078;51.542;7.314;2023-08-07T00:44:06;13.40;99.90
14006;DHT22;7078;51.542;7.314;2023-08-07T00:46:32;13.40;99.90
14006;DHT22;7078;51.542;7.314;2023-08-07T00:48:57;13.40;99.90
14006;DHT22;7078;51.542;7.314;2023-08-07T00:51:23;13.40;99.90
14006;DHT22;7078;51.542;7.314;2023-08-07T00:53:49;13.40;99.90
14006;DHT22;7078;51.542;7.314;2023-08-07T00:56:15;13.40;99.90
14006;DHT22;7078;51.542;7.314;2023-08-07T00:58:41;13.40;99.90
14006;DHT22;7078;51.542;7.314;2023-08-07T01:01:07;13.40;99.90
14006;DHT22;7078;51.542;7.314;2023-08-07T01:03:33;13.40;99.90
14006;DHT22;7078;51.542;7.314;2023-08-07T01:05:58;13.40;99.90
14006;DHT22;7078;51.542;7.314;2023-08-07T01:08:25;13.40;99.90
14006;DHT22;7078;51.542;7.314;2023-08-07T01:11:24;13.40;99.90
14006;DHT22;7078;51.542;7.314;2023-08-07T01:14:08;13.40;99.90
14006;DHT22;7078;51.542;7.314;2023-08-07T01:17:05;13.40;99.90
14006;DHT22;7078;51.542;7.314;2023-08-07T01:19:31;13.40;99.90
14006;DHT22;7078;51.542;7.314;2023-08-07T01:24:32;13.30;99.90
14006;DHT22;7078;51.542;7.314;2023-08-07T01:27:02;13.30;99.90
14006;DHT22;7078;51.542;7.314;2023-08-07T01:29:36;13.40;99.90
14006;DHT22;7078;51.542;7.314;2023-08-07T01:32:08;13.40;99.90
14006;DHT22;7078;51.542;7.314;2023-08-07T01:34:35;13.30;99.90
14006;DHT22;7078;51.542;7.314;2023-08-07T01:37:03;13.40;99.90
14006;DHT22;7078;51.542;7.314;2023-08-07T01:39:30;13.40;99.90
14006;DHT22;7078;51.542;7.314;2023-08-07T01:41:56;13.30;99.90
14006;DHT22;7078;51.542;7.314;2023-08-07T01:44:22;13.30;99.90
14006;DHT22;7078;51.542;7.314;2023-08-07T01:46:47;13.30;99.90
14006;DHT22;7078;51.542;7.314;2023-08-07T01:49:13;13.30;99.90
14006;DHT22;7078;51.542;7.314;2023-08-07T01:51:38;13.30;99.90
14006;DHT22;7078;51.542;7.314;2023-08-07T01:54:04;13.20;99.90
14006;DHT22;7078;51.542;7.314;2023-08-07T01:56:29;13.30;99.90
14006;DHT22;7078;51.542;7.314;2023-08-07T01:58:55;13.20;99.90
14006;DHT22;7078;51.542;7.314;2023-08-07T02:01:20;13.20;99.90
14006;DHT22;7078;51.542;7.314;2023-08-07T02:03:46;13.20;99.90
14006;DHT22;7078;51.542;7.314;2023-08-07T02:06:11;13.20;99.90
14006;DHT22;7078;51.542;7.314;2023-08-07T02:08:37;13.20;99.90
14006;DHT22;7078;51.542;7.314;2023-08-07T02:11:02;13.20;99.90
14006;DHT22;7078;51.542;7.314;2023-08-07T02:13:28;13.10;99.90
14006;DHT22;7078;51.542;7.314;2023-08-07T02:15:54;13.20;99.90
14006;DHT22;7078;51.542;7.314;2023-08-07T02:18:19;13.10;99.90
14006;DHT22;7078;51.542;7.314;2023-08-07T02:20:45;13.10;99.90
14006;DHT22;7078;51.542;7.314;2023-08-07T02:23:11;13.10;99.90
14006;DHT22;7078;51.542;7.314;2023-08-07T02:25:37;13.10;99.90
14006;DHT22;7078;51.542;7.314;2023-08-07T02:28:02;13.10;99.90
14006;DHT22;7078;51.542;7.314;2023-08-07T02:30:28;13.10;99.90
14006;DHT22;7078;51.542;7.314;2023-08-07T02:32:53;13.10;99.90
14006;DHT22;7078;51.542;7.314;2023-08-07T02:35:19;13.10;99.90
14006;DHT22;7078;51.542;7.314;2023-08-07T02:37:44;13.10;99.90
14006;DHT22;7078;51.542;7.314;2023-08-07T02:40:10;13.10;99.90
14006;DHT22;7078;51.542;7.314;2023-08-07T02:42:38;13.10;99.90
14006;DHT22;7078;51.542;7.314;2023-08-07T02:45:04;13.10;99.90
14006;DHT22;7078;51.542;7.314;2023-08-07T02:47:30;13.20;99.90
14006;DHT22;7078;51.542;7.314;2023-08-07T02:49:56;13.10;99.90
14006;DHT22;7078;51.542;7.314;2023-08-07T02:52:21;13.10;99.90
14006;DHT22;7078;51.542;7.314;2023-08-07T02:54:47;13.20;99.90
14006;DHT22;7078;51.542;7.314;2023-08-07T02:57:12;13.20;99.90
14006;DHT22;7078;51.542;7.314;2023-08-07T02:59:38;13.20;99.90
14006;DHT22;7078;51.542;7.314;2023-08-07T03:02:04;13.20;99.90
14006;DHT22;7078;51.542;7.314;2023-08-07T03:04:29;13.20;99.90
14006;DHT22;7078;51.542;7.314;2023-08-07T03:06:55;13.20;99.90
14006;DHT22;7078;51.542;7.314;2023-08-07T03:09:20;13.20;99.90
14006;DHT22;7078;51.542;7.314;2023-08-07T03:11:46;13.30;99.90
14006;DHT22;7078;51.542;7.314;2023-08-07T03:14:11;13.20;99.90
14006;DHT22;7078;51.542;7.314;2023-08-07T03:16:37;13.20;99.90
14006;DHT22;7078;51.542;7.314;2023-08-07T03:19:02;13.30;99.90
14006;DHT22;7078;51.542;7.314;2023-08-07T03:21:28;13.30;99.90
14006;DHT22;7078;51.542;7.314;2023-08-07T03:23:53;13.20;99.90
14006;DHT22;7078;51.542;7.314;2023-08-07T03:26:19;13.30;99.90
14006;DHT22;7078;51.542;7.314;2023-08-07T03:28:44;13.30;99.90
14006;DHT22;7078;51.542;7.314;2023-08-07T03:31:12;13.20;99.90
14006;DHT22;7078;51.542;7.314;2023-08-07T03:33:37;13.20;99.90
14006;DHT22;7078;51.542;7.314;2023-08-07T03:36:03;13.20;99.90
14006;DHT22;7078;51.542;7.314;2023-08-07T03:38:29;13.20;99.90
14006;DHT22;7078;51.542;7.314;2023-08-07T03:40:54;13.20;99.90
14006;DHT22;7078;51.542;7.314;2023-08-07T03:43:20;13.20;99.90
14006;DHT22;7078;51.542;7.314;2023-08-07T03:45:45;13.20;99.90
14006;DHT22;7078;51.542;7.314;2023-08-07T03:48:11;13.20;99.90
14006;DHT22;7078;51.542;7.314;2023-08-07T03:50:36;13.20;99.90
14006;DHT22;7078;51.542;7.314;2023-08-07T03:53:05;13.10;99.90
14006;DHT22;7078;51.542;7.314;2023-08-07T03:55:32;13.10;99.90
14006;DHT22;7078;51.542;7.314;2023-08-07T03:57:58;13.20;99.90
14006;DHT22;7078;51.542;7.314;2023-08-07T04:00:23;13.20;99.90
14006;DHT22;7078;51.542;7.314;2023-08-07T04:02:49;13.10;99.90
14006;DHT22;7078;51.542;7.314;2023-08-07T04:05:14;13.10;99.90
14006;DHT22;7078;51.542;7.314;2023-08-07T04:07:40;13.10;99.90
14006;DHT22;7078;51.542;7.314;2023-08-07T04:10:05;13.10;99.90
14006;DHT22;7078;51.542;7.314;2023-08-07T04:12:31;13.10;99.90
14006;DHT22;7078;51.542;7.314;2023-08-07T04:14:57;13.10;99.90
14006;DHT22;7078;51.542;7.314;2023-08-07T04:17:23;13.10;99.90
14006;DHT22;7078;51.542;7.314;2023-08-07T04:19:48;13.10;99.90
14006;DHT22;7078;51.542;7.314;2023-08-07T04:22:14;13.00;99.90
14006;DHT22;7078;51.542;7.314;2023-08-07T04:24:39;13.00;99.90
14006;DHT22;7078;51.542;7.314;2023-08-07T04:27:05;13.00;99.90
14006;DHT22;7078;51.542;7.314;2023-08-07T04:29:31;13.10;99.90
14006;DHT22;7078;51.542;7.314;2023-08-07T04:31:56;13.00;99.90
14006;DHT22;7078;51.542;7.314;2023-08-07T04:34:22;13.00;99.90
14006;DHT22;7078;51.542;7.314;2023-08-07T04:36:47;13.00;99.90
14006;DHT22;7078;51.542;7.314;2023-08-07T04:39:13;13.00;99.90
14006;DHT22;7078;51.542;7.314;2023-08-07T04:41:39;13.00;99.90
14006;DHT22;7078;51.542;7.314;2023-08-07T04:44:04;13.00;99.90
14006;DHT22;7078;51.542;7.314;2023-08-07T04:46:30;13.00;99.90
14006;DHT22;7078;51.542;7.314;2023-08-07T04:48:56;13.00;99.90
14006;DHT22;7078;51.542;7.314;2023-08-07T04:51:21;13.00;99.90
14006;DHT22;7078;51.542;7.314;2023-08-07T04:53:47;13.00;99.90
14006;DHT22;7078;51.542;7.314;2023-08-07T04:56:16;13.00;99.90
14006;DHT22;7078;51.542;7.314;2023-08-07T04:58:42;13.00;99.90
14006;DHT22;7078;51.542;7.314;2023-08-07T05:01:07;13.00;99.90
14006;DHT22;7078;51.542;7.314;2023-08-07T05:03:34;13.00;99.90
14006;DHT22;7078;51.542;7.314;2023-08-07T05:06:00;13.00;99.90
14006;DHT22;7078;51.542;7.314;2023-08-07T05:08:26;13.00;99.90
14006;DHT22;7078;51.542;7.314;2023-08-07T05:10:52;13.00;99.90
14006;DHT22;7078;51.542;7.314;2023-08-07T05:13:17;13.10;99.90
14006;DHT22;7078;51.542;7.314;2023-08-07T05:15:43;13.00;99.90
14006;DHT22;7078;51.542;7.314;2023-08-07T05:18:09;13.00;99.90
14006;DHT22;7078;51.542;7.314;2023-08-07T05:20:34;13.10;99.90
14006;DHT22;7078;51.542;7.314;2023-08-07T05:23:00;13.00;99.90
14006;DHT22;7078;51.542;7.314;2023-08-07T05:25:26;13.00;99.90
14006;DHT22;7078;51.542;7.314;2023-08-07T05:27:51;13.00;99.90
14006;DHT22;7078;51.542;7.314;2023-08-07T05:30:17;13.00;99.90
14006;DHT22;7078;51.542;7.314;2023-08-07T05:32:42;13.00;99.90
14006;DHT22;7078;51.542;7.314;2023-08-07T05:35:08;13.00;99.90
14006;DHT22;7078;51.542;7.314;2023-08-07T05:37:34;13.00;99.90
14006;DHT22;7078;51.542;7.314;2023-08-07T05:40:00;13.00;99.90
14006;DHT22;7078;51.542;7.314;2023-08-07T05:42:27;13.10;99.90
14006;DHT22;7078;51.542;7.314;2023-08-07T05:44:55;13.10;99.90
14006;DHT22;7078;51.542;7.314;2023-08-07T05:47:20;13.10;99.90
14006;DHT22;7078;51.542;7.314;2023-08-07T05:49:46;13.00;99.90
14006;DHT22;7078;51.542;7.314;2023-08-07T05:52:11;13.00;99.90
14006;DHT22;7078;51.542;7.314;2023-08-07T05:54:37;13.10;99.90
14006;DHT22;7078;51.542;7.314;2023-08-07T05:57:03;13.10;99.90
14006;DHT22;7078;51.542;7.314;2023-08-07T05:59:28;13.10;99.90
14006;DHT22;7078;51.542;7.314;2023-08-07T06:01:54;13.10;99.90
14006;DHT22;7078;51.542;7.314;2023-08-07T06:04:21;13.20;99.90
14006;DHT22;7078;51.542;7.314;2023-08-07T06:06:47;13.10;99.90
14006;DHT22;7078;51.542;7.314;2023-08-07T06:09:13;13.10;99.90
14006;DHT22;7078;51.542;7.314;2023-08-07T06:11:41;13.10;99.90
14006;DHT22;7078;51.542;7.314;2023-08-07T06:14:06;13.10;99.90
14006;DHT22;7078;51.542;7.314;2023-08-07T06:16:32;13.20;99.90
14006;DHT22;7078;51.542;7.314;2023-08-07T06:18:58;13.20;99.90
14006;DHT22;7078;51.542;7.314;2023-08-07T06:21:24;13.20;99.90
14006;DHT22;7078;51.542;7.314;2023-08-07T06:23:49;13.20;99.90
14006;DHT22;7078;51.542;7.314;2023-08-07T06:26:15;13.20;99.90
14006;DHT22;7078;51.542;7.314;2023-08-07T06:28:42;13.20;99.90
14006;DHT22;7078;51.542;7.314;2023-08-07T06:31:09;13.30;99.90
14006;DHT22;7078;51.542;7.314;2023-08-07T06:33:35;13.30;99.90
14006;DHT22;7078;51.542;7.314;2023-08-07T06:36:02;13.30;99.90
14006;DHT22;7078;51.542;7.314;2023-08-07T06:38:28;13.20;99.90
14006;DHT22;7078;51.542;7.314;2023-08-07T06:40:54;13.20;99.90
14006;DHT22;7078;51.542;7.314;2023-08-07T06:43:19;13.20;99.90
14006;DHT22;7078;51.542;7.314;2023-08-07T06:45:53;13.30;99.90
14006;DHT22;7078;51.542;7.314;2023-08-07T06:48:18;13.30;99.90
14006;DHT22;7078;51.542;7.314;2023-08-07T06:50:46;13.30;99.90
14006;DHT22;7078;51.542;7.314;2023-08-07T06:53:11;13.30;99.90
14006;DHT22;7078;51.542;7.314;2023-08-07T06:55:37;13.30;99.90
14006;DHT22;7078;51.542;7.314;2023-08-07T06:58:02;13.40;99.90
14006;DHT22;7078;51.542;7.314;2023-08-07T07:00:28;13.40;99.90
14006;DHT22;7078;51.542;7.314;2023-08-07T07:02:53;13.40;99.90
14006;DHT22;7078;51.542;7.314;2023-08-07T07:05:19;13.50;99.90
14006;DHT22;7078;51.542;7.314;2023-08-07T07:07:45;13.50;99.90
14006;DHT22;7078;51.542;7.314;2023-08-07T07:10:10;13.50;99.90
14006;DHT22;7078;51.542;7.314;2023-08-07T07:12:36;13.60;99.90
14006;DHT22;7078;51.542;7.314;2023-08-07T07:15:02;13.50;99.90
14006;DHT22;7078;51.542;7.314;2023-08-07T07:17:28;13.60;99.90
14006;DHT22;7078;51.542;7.314;2023-08-07T07:19:53;13.60;99.90
14006;DHT22;7078;51.542;7.314;2023-08-07T07:22:19;13.60;99.90
14006;DHT22;7078;51.542;7.314;2023-08-07T07:24:44;13.60;99.90
14006;DHT22;7078;51.542;7.314;2023-08-07T07:27:10;13.60;99.90
14006;DHT22;7078;51.542;7.314;2023-08-07T07:29:36;13.60;99.90
14006;DHT22;7078;51.542;7.314;2023-08-07T07:32:01;13.60;99.90
14006;DHT22;7078;51.542;7.314;2023-08-07T07:34:27;13.60;99.90
14006;DHT22;7078;51.542;7.314;2023-08-07T07:36:52;13.60;99.90
14006;DHT22;7078;51.542;7.314;2023-08-07T07:39:19;13.50;99.90
14006;DHT22;7078;51.542;7.314;2023-08-07T07:41:45;13.60;99.90
14006;DHT22;7078;51.542;7.314;2023-08-07T07:44:10;13.60;99.90
14006;DHT22;7078;51.542;7.314;2023-08-07T07:46:36;13.60;99.90
14006;DHT22;7078;51.542;7.314;2023-08-07T07:49:02;13.60;99.90
14006;DHT22;7078;51.542;7.314;2023-08-07T07:51:29;13.70;99.90
14006;DHT22;7078;51.542;7.314;2023-08-07T07:53:54;13.60;99.90
14006;DHT22;7078;51.542;7.314;2023-08-07T07:56:20;13.60;99.90
14006;DHT22;7078;51.542;7.314;2023-08-07T07:58:45;13.70;99.90
14006;DHT22;7078;51.542;7.314;2023-08-07T08:01:11;13.70;99.90
14006;DHT22;7078;51.542;7.314;2023-08-07T08:03:37;13.70;99.90
14006;DHT22;7078;51.542;7.314;2023-08-07T08:06:02;13.80;99.90
14006;DHT22;7078;51.542;7.314;2023-08-07T08:08:28;13.80;99.90
14006;DHT22;7078;51.542;7.314;2023-08-07T08:10:54;13.90;99.90
14006;DHT22;7078;51.542;7.314;2023-08-07T08:13:20;13.90;99.90
14006;DHT22;7078;51.542;7.314;2023-08-07T08:15:45;13.90;99.90
14006;DHT22;7078;51.542;7.314;2023-08-07T08:18:11;14.00;99.90
14006;DHT22;7078;51.542;7.314;2023-08-07T08:20:38;14.00;99.90
14006;DHT22;7078;51.542;7.314;2023-08-07T08:23:04;14.10;99.90
14006;DHT22;7078;51.542;7.314;2023-08-07T08:25:30;14.20;99.90
14006;DHT22;7078;51.542;7.314;2023-08-07T08:27:56;14.30;99.90
14006;DHT22;7078;51.542;7.314;2023-08-07T08:30:22;14.40;99.90
14006;DHT22;7078;51.542;7.314;2023-08-07T08:32:47;14.40;99.90
14006;DHT22;7078;51.542;7.314;2023-08-07T08:35:13;14.50;99.90
14006;DHT22;7078;51.542;7.314;2023-08-07T08:37:39;14.50;99.90
14006;DHT22;7078;51.542;7.314;2023-08-07T08:40:05;14.50;99.90
14006;DHT22;7078;51.542;7.314;2023-08-07T08:42:32;14.40;99.90
14006;DHT22;7078;51.542;7.314;2023-08-07T08:44:58;14.40;99.90
14006;DHT22;7078;51.542;7.314;2023-08-07T08:47:26;14.40;99.90
14006;DHT22;7078;51.542;7.314;2023-08-07T08:50:04;14.40;99.90
14006;DHT22;7078;51.542;7.314;2023-08-07T08:52:32;14.30;99.90
14006;DHT22;7078;51.542;7.314;2023-08-07T08:54:58;14.30;99.90
14006;DHT22;7078;51.542;7.314;2023-08-07T08:57:28;14.30;99.90
14006;DHT22;7078;51.542;7.314;2023-08-07T08:59:55;14.50;99.90
14006;DHT22;7078;51.542;7.314;2023-08-07T09:02:21;14.50;99.90
14006;DHT22;7078;51.542;7.314;2023-08-07T09:04:47;14.70;99.90
14006;DHT22;7078;51.542;7.314;2023-08-07T09:07:15;14.80;99.90
14006;DHT22;7078;51.542;7.314;2023-08-07T09:09:41;14.90;99.90
14006;DHT22;7078;51.542;7.314;2023-08-07T09:12:20;15.00;99.90
14006;DHT22;7078;51.542;7.314;2023-08-07T09:14:50;15.00;99.90
14006;DHT22;7078;51.542;7.314;2023-08-07T09:17:18;15.10;99.90
14006;DHT22;7078;51.542;7.314;2023-08-07T09:19:44;15.20;99.90
14006;DHT22;7078;51.542;7.314;2023-08-07T09:22:11;15.40;99.90
14006;DHT22;7078;51.542;7.314;2023-08-07T09:24:36;15.50;99.90
14006;DHT22;7078;51.542;7.314;2023-08-07T09:27:02;15.70;99.90
14006;DHT22;7078;51.542;7.314;2023-08-07T09:29:27;15.80;99.90
14006;DHT22;7078;51.542;7.314;2023-08-07T09:31:54;15.80;99.90
14006;DHT22;7078;51.542;7.314;2023-08-07T09:34:20;15.90;99.90
14006;DHT22;7078;51.542;7.314;2023-08-07T09:36:46;15.90;99.90
14006;DHT22;7078;51.542;7.314;2023-08-07T09:39:12;16.10;99.90
14006;DHT22;7078;51.542;7.314;2023-08-07T09:41:37;16.20;99.90
14006;DHT22;7078;51.542;7.314;2023-08-07T09:44:10;16.30;99.90
14006;DHT22;7078;51.542;7.314;2023-08-07T09:46:42;16.30;99.90
14006;DHT22;7078;51.542;7.314;2023-08-07T09:49:08;16.30;99.90
14006;DHT22;7078;51.542;7.314;2023-08-07T09:51:44;16.30;99.90
14006;DHT22;7078;51.542;7.314;2023-08-07T09:54:10;16.30;99.90
14006;DHT22;7078;51.542;7.314;2023-08-07T09:56:36;16.30;99.90
14006;DHT22;7078;51.542;7.314;2023-08-07T09:59:01;16.40;99.90
14006;DHT22;7078;51.542;7.314;2023-08-07T10:01:27;16.50;99.90
14006;DHT22;7078;51.542;7.314;2023-08-07T10:03:53;16.60;99.90
14006;DHT22;7078;51.542;7.314;2023-08-07T10:06:19;16.80;99.90
14006;DHT22;7078;51.542;7.314;2023-08-07T10:08:45;16.80;99.90
14006;DHT22;7078;51.542;7.314;2023-08-07T10:11:11;16.60;99.90
14006;DHT22;7078;51.542;7.314;2023-08-07T10:13:40;16.40;99.90
14006;DHT22;7078;51.542;7.314;2023-08-07T10:16:06;16.30;99.90
14006;DHT22;7078;51.542;7.314;2023-08-07T10:18:33;16.00;99.90
14006;DHT22;7078;51.542;7.314;2023-08-07T10:21:01;16.00;99.90
14006;DHT22;7078;51.542;7.314;2023-08-07T10:23:27;15.90;99.90
14006;DHT22;7078;51.542;7.314;2023-08-07T10:25:53;15.80;99.90
14006;DHT22;7078;51.542;7.314;2023-08-07T10:28:20;15.80;99.90
14006;DHT22;7078;51.542;7.314;2023-08-07T10:30:47;15.80;99.90
14006;DHT22;7078;51.542;7.314;2023-08-07T10:33:14;15.90;99.90
14006;DHT22;7078;51.542;7.314;2023-08-07T10:35:45;16.20;99.90
14006;DHT22;7078;51.542;7.314;2023-08-07T10:38:12;16.30;99.90
14006;DHT22;7078;51.542;7.314;2023-08-07T10:41:01;16.50;99.90
14006;DHT22;7078;51.542;7.314;2023-08-07T10:43:27;16.70;99.90
14006;DHT22;7078;51.542;7.314;2023-08-07T10:45:53;16.90;99.90
14006;DHT22;7078;51.542;7.314;2023-08-07T10:48:20;17.00;99.90
14006;DHT22;7078;51.542;7.314;2023-08-07T10:53:36;17.20;99.90
14006;DHT22;7078;51.542;7.314;2023-08-07T10:56:03;17.30;99.90
14006;DHT22;7078;51.542;7.314;2023-08-07T10:58:33;17.40;99.90
14006;DHT22;7078;51.542;7.314;2023-08-07T11:03:59;17.50;99.90
14006;DHT22;7078;51.542;7.314;2023-08-07T11:06:30;17.50;99.90
14006;DHT22;7078;51.542;7.314;2023-08-07T11:08:59;17.50;99.90
14006;DHT22;7078;51.542;7.314;2023-08-07T11:11:27;17.50;99.90
14006;DHT22;7078;51.542;7.314;2023-08-07T11:13:52;17.70;99.90
14006;DHT22;7078;51.542;7.314;2023-08-07T11:16:18;17.60;99.90
14006;DHT22;7078;51.542;7.314;2023-08-07T11:18:47;17.60;99.90
14006;DHT22;7078;51.542;7.314;2023-08-07T11:21:12;17.60;99.90
14006;DHT22;7078;51.542;7.314;2023-08-07T11:23:41;17.80;99.90
14006;DHT22;7078;51.542;7.314;2023-08-07T11:26:09;17.90;99.90
14006;DHT22;7078;51.542;7.314;2023-08-07T11:28:35;17.90;99.90
14006;DHT22;7078;51.542;7.314;2023-08-07T11:31:01;18.10;99.90
14006;DHT22;7078;51.542;7.314;2023-08-07T11:33:28;18.10;99.90
14006;DHT22;7078;51.542;7.314;2023-08-07T11:35:54;18.00;99.90
14006;DHT22;7078;51.542;7.314;2023-08-07T11:38:38;18.30;99.90
14006;DHT22;7078;51.542;7.314;2023-08-07T11:41:05;18.30;99.90
14006;DHT22;7078;51.542;7.314;2023-08-07T11:43:32;18.30;99.90
14006;DHT22;7078;51.542;7.314;2023-08-07T11:46:00;18.10;99.90
14006;DHT22;7078;51.542;7.314;2023-08-07T11:48:27;17.80;99.90
14006;DHT22;7078;51.542;7.314;2023-08-07T11:50:54;17.70;99.90
14006;DHT22;7078;51.542;7.314;2023-08-07T11:53:24;17.80;99.90
14006;DHT22;7078;51.542;7.314;2023-08-07T11:56:02;17.70;99.90
14006;DHT22;7078;51.542;7.314;2023-08-07T11:58:37;17.60;99.90
14006;DHT22;7078;51.542;7.314;2023-08-07T12:01:11;17.80;99.90
14006;DHT22;7078;51.542;7.314;2023-08-07T12:03:40;17.80;99.90
14006;DHT22;7078;51.542;7.314;2023-08-07T12:06:07;18.00;99.90
14006;DHT22;7078;51.542;7.314;2023-08-07T12:08:38;18.20;99.90
14006;DHT22;7078;51.542;7.314;2023-08-07T12:11:06;18.30;99.90
14006;DHT22;7078;51.542;7.314;2023-08-07T12:13:33;18.30;99.90
14006;DHT22;7078;51.542;7.314;2023-08-07T12:16:02;18.40;99.90
14006;DHT22;7078;51.542;7.314;2023-08-07T12:18:31;18.60;99.90
14006;DHT22;7078;51.542;7.314;2023-08-07T12:21:02;18.80;99.90
14006;DHT22;7078;51.542;7.314;2023-08-07T12:23:28;19.00;99.90
14006;DHT22;7078;51.542;7.314;2023-08-07T12:25:54;19.20;99.90
14006;DHT22;7078;51.542;7.314;2023-08-07T12:28:20;19.20;99.90
14006;DHT22;7078;51.542;7.314;2023-08-07T12:30:46;19.30;99.90
14006;DHT22;7078;51.542;7.314;2023-08-07T12:33:13;19.50;99.90
14006;DHT22;7078;51.542;7.314;2023-08-07T12:35:40;19.50;99.90
14006;DHT22;7078;51.542;7.314;2023-08-07T12:38:06;19.60;99.90
14006;DHT22;7078;51.542;7.314;2023-08-07T12:40:32;19.70;99.90
14006;DHT22;7078;51.542;7.314;2023-08-07T12:43:00;19.70;99.90
14006;DHT22;7078;51.542;7.314;2023-08-07T12:45:26;19.70;99.90
14006;DHT22;7078;51.542;7.314;2023-08-07T12:47:51;19.60;99.90
14006;DHT22;7078;51.542;7.314;2023-08-07T12:50:17;19.50;99.90
14006;DHT22;7078;51.542;7.314;2023-08-07T12:52:43;19.40;99.90
14006;DHT22;7078;51.542;7.314;2023-08-07T12:55:10;19.30;99.90
14006;DHT22;7078;51.542;7.314;2023-08-07T12:57:40;19.20;99.90
14006;DHT22;7078;51.542;7.314;2023-08-07T13:00:07;19.30;99.90
14006;DHT22;7078;51.542;7.314;2023-08-07T13:02:34;19.50;99.90
14006;DHT22;7078;51.542;7.314;2023-08-07T13:04:59;19.60;99.90
14006;DHT22;7078;51.542;7.314;2023-08-07T13:07:25;19.80;99.90
14006;DHT22;7078;51.542;7.314;2023-08-07T13:09:50;19.90;99.90
14006;DHT22;7078;51.542;7.314;2023-08-07T13:12:16;20.00;99.90
14006;DHT22;7078;51.542;7.314;2023-08-07T13:14:41;20.00;99.90
14006;DHT22;7078;51.542;7.314;2023-08-07T13:17:07;20.20;99.90
14006;DHT22;7078;51.542;7.314;2023-08-07T13:19:32;20.40;99.50
14006;DHT22;7078;51.542;7.314;2023-08-07T13:21:58;20.40;98.50
14006;DHT22;7078;51.542;7.314;2023-08-07T13:24:24;20.30;99.90
14006;DHT22;7078;51.542;7.314;2023-08-07T13:26:49;20.00;96.40
14006;DHT22;7078;51.542;7.314;2023-08-07T13:29:15;19.90;96.10
14006;DHT22;7078;51.542;7.314;2023-08-07T13:31:40;19.90;95.80
14006;DHT22;7078;51.542;7.314;2023-08-07T13:34:12;19.90;97.40
14006;DHT22;7078;51.542;7.314;2023-08-07T13:36:38;20.10;96.50
14006;DHT22;7078;51.542;7.314;2023-08-07T13:39:04;20.30;96.70
14006;DHT22;7078;51.542;7.314;2023-08-07T13:41:30;20.60;97.50
14006;DHT22;7078;51.542;7.314;2023-08-07T13:43:56;20.60;96.50
14006;DHT22;7078;51.542;7.314;2023-08-07T13:46:22;20.60;95.90
14006;DHT22;7078;51.542;7.314;2023-08-07T13:48:47;20.60;97.00
14006;DHT22;7078;51.542;7.314;2023-08-07T13:51:14;20.20;94.90
14006;DHT22;7078;51.542;7.314;2023-08-07T13:53:41;20.20;98.00
14006;DHT22;7078;51.542;7.314;2023-08-07T13:56:07;20.20;98.00
14006;DHT22;7078;51.542;7.314;2023-08-07T13:58:34;19.90;97.90
14006;DHT22;7078;51.542;7.314;2023-08-07T14:01:00;19.50;99.90
14006;DHT22;7078;51.542;7.314;2023-08-07T14:03:25;19.00;99.90
14006;DHT22;7078;51.542;7.314;2023-08-07T14:05:51;18.70;99.90
14006;DHT22;7078;51.542;7.314;2023-08-07T14:08:17;18.40;99.90
14006;DHT22;7078;51.542;7.314;2023-08-07T14:10:42;18.00;99.90
14006;DHT22;7078;51.542;7.314;2023-08-07T14:13:08;17.60;99.90
14006;DHT22;7078;51.542;7.314;2023-08-07T14:15:35;17.30;99.90
14006;DHT22;7078;51.542;7.314;2023-08-07T14:18:01;17.20;99.90
14006;DHT22;7078;51.542;7.314;2023-08-07T14:20:27;17.10;99.90
14006;DHT22;7078;51.542;7.314;2023-08-07T14:22:53;17.00;99.90
14006;DHT22;7078;51.542;7.314;2023-08-07T14:25:18;16.90;99.90
14006;DHT22;7078;51.542;7.314;2023-08-07T14:27:46;17.20;99.90
14006;DHT22;7078;51.542;7.314;2023-08-07T14:30:12;17.40;99.90
14006;DHT22;7078;51.542;7.314;2023-08-07T14:32:38;17.70;99.90
14006;DHT22;7078;51.542;7.314;2023-08-07T14:35:04;17.90;99.90
14006;DHT22;7078;51.542;7.314;2023-08-07T14:37:29;18.30;99.90
14006;DHT22;7078;51.542;7.314;2023-08-07T14:39:55;18.80;99.90
14006;DHT22;7078;51.542;7.314;2023-08-07T14:42:21;19.10;99.90
14006;DHT22;7078;51.542;7.314;2023-08-07T14:44:46;19.20;99.90
14006;DHT22;7078;51.542;7.314;2023-08-07T14:47:12;19.20;99.90
14006;DHT22;7078;51.542;7.314;2023-08-07T14:49:37;19.00;99.90
14006;DHT22;7078;51.542;7.314;2023-08-07T14:52:03;18.70;99.90
14006;DHT22;7078;51.542;7.314;2023-08-07T14:54:29;18.40;99.90
14006;DHT22;7078;51.542;7.314;2023-08-07T14:56:54;18.20;99.90
14006;DHT22;7078;51.542;7.314;2023-08-07T14:59:20;18.30;99.90
14006;DHT22;7078;51.542;7.314;2023-08-07T15:01:45;18.50;99.90
14006;DHT22;7078;51.542;7.314;2023-08-07T15:04:11;19.10;99.90
14006;DHT22;7078;51.542;7.314;2023-08-07T15:06:37;19.40;99.90
14006;DHT22;7078;51.542;7.314;2023-08-07T15:09:02;19.50;99.90
14006;DHT22;7078;51.542;7.314;2023-08-07T15:11:28;19.60;99.90
14006;DHT22;7078;51.542;7.314;2023-08-07T15:13:53;19.80;99.90
14006;DHT22;7078;51.542;7.314;2023-08-07T15:16:19;20.00;99.90
14006;DHT22;7078;51.542;7.314;2023-08-07T15:18:45;19.90;99.90
14006;DHT22;7078;51.542;7.314;2023-08-07T15:21:10;19.80;99.90
14006;DHT22;7078;51.542;7.314;2023-08-07T15:23:36;19.80;99.90
14006;DHT22;7078;51.542;7.314;2023-08-07T15:26:02;19.80;99.90
14006;DHT22;7078;51.542;7.314;2023-08-07T15:28:27;19.70;99.90
14006;DHT22;7078;51.542;7.314;2023-08-07T15:30:53;19.80;99.90
14006;DHT22;7078;51.542;7.314;2023-08-07T15:33:19;19.70;99.90
14006;DHT22;7078;51.542;7.314;2023-08-07T15:35:45;19.60;99.90
14006;DHT22;7078;51.542;7.314;2023-08-07T15:38:10;20.30;99.90
14006;DHT22;7078;51.542;7.314;2023-08-07T15:40:39;22.50;99.90
14006;DHT22;7078;51.542;7.314;2023-08-07T15:43:08;23.70;94.20
14006;DHT22;7078;51.542;7.314;2023-08-07T15:45:35;25.20;90.30
14006;DHT22;7078;51.542;7.314;2023-08-07T15:48:01;27.00;82.60